Time;durP1;ratioP1;P1;durP2;ratioP2;P2;SDS_P1;SDS_P2;PMS_P1;PMS_P2;Temp;Humidity;BMP_temperature;BMP_pressure;BME280_temperature;BME280_humidity;BME280_pressure;Samples;Min_cycle;Max_cycle;Signal;HPM_P1;HPM_P2
2022/05/28 00:01:21;;;;;;;14.85;3.92;;;;;;;10.46;64.37;102027.63;5007651;28;20018;-89
2022/05/28 00:03:48;;;;;;;13.07;3.47;;;;;;;10.44;64.25;102026.78;5008066;28;20025;-91
2022/05/28 00:06:19;;;;;;;13.50;3.88;;;;;;;10.37;64.64;102011.94;5008569;28;20026;-89
2022/05/28 00:08:45;;;;;;;9.98;3.15;;;;;;;10.41;64.83;102018.91;5006392;28;20109;-89
2022/05/28 00:11:24;;;;;;;12.40;3.05;;;;;;;10.40;64.54;102016.28;5008198;28;20030;-89
2022/05/28 00:13:50;;;;;;;10.05;3.28;;;;;;;10.37;65.02;102014.59;5007407;28;20049;-90
2022/05/28 00:16:16;;;;;;;11.30;3.55;;;;;;;10.38;64.95;102016.34;5008176;28;20133;-90
2022/05/28 00:18:42;;;;;;;12.32;4.00;;;;;;;10.37;64.92;102014.59;5006630;28;20045;-89
2022/05/28 00:21:09;;;;;;;10.88;3.42;;;;;;;10.37;65.04;102008.41;5008106;28;20026;-92
2022/05/28 00:23:35;;;;;;;12.05;3.50;;;;;;;10.34;65.08;102014.69;5007927;28;20608;-90
2022/05/28 00:26:01;;;;;;;16.52;3.88;;;;;;;10.31;65.53;102000.59;5005581;28;20798;-90
2022/05/28 00:28:26;;;;;;;11.02;3.92;;;;;;;10.25;65.34;102000.81;4988969;28;20034;-87
2022/05/28 00:30:52;;;;;;;9.50;3.58;;;;;;;10.29;65.73;102002.47;5007231;28;20104;-89
2022/05/28 00:33:17;;;;;;;11.93;3.78;;;;;;;10.28;65.97;101998.91;5008787;28;20057;-91
2022/05/28 00:35:42;;;;;;;14.70;3.75;;;;;;;10.23;66.23;101995.47;5008987;28;20018;-89
2022/05/28 00:38:07;;;;;;;15.10;3.90;;;;;;;10.22;66.33;101991.09;5010451;28;20430;-90
2022/05/28 00:40:33;;;;;;;13.23;3.92;;;;;;;10.21;66.59;101994.69;5009405;28;20061;-90
2022/05/28 00:43:00;;;;;;;16.33;3.80;;;;;;;10.27;66.70;101991.84;5011141;28;20053;-88
2022/05/28 00:45:26;;;;;;;15.18;3.80;;;;;;;10.35;66.40;101996.94;5011829;28;20030;-90
2022/05/28 00:47:55;;;;;;;12.55;3.90;;;;;;;10.35;66.60;101987.16;5011312;28;20451;-90
2022/05/28 00:50:21;;;;;;;11.43;3.70;;;;;;;10.44;66.02;101996.63;5009754;28;20484;-88
2022/05/28 00:52:46;;;;;;;12.95;3.55;;;;;;;10.48;65.88;101990.28;5010998;28;20080;-89
2022/05/28 00:55:13;;;;;;;11.15;3.63;;;;;;;10.50;66.08;101991.13;5012159;28;20037;-90
2022/05/28 00:57:40;;;;;;;11.48;3.58;;;;;;;10.59;65.47;101987.28;5010603;28;20033;-89
2022/05/28 01:00:11;;;;;;;10.52;3.55;;;;;;;10.62;65.58;101989.88;5009505;28;20036;-90
2022/05/28 01:02:51;;;;;;;11.90;3.95;;;;;;;10.60;65.31;101983.69;5011279;28;20067;-88
2022/05/28 01:05:28;;;;;;;17.80;4.32;;;;;;;10.60;65.24;101984.56;5012357;28;20026;-89
2022/05/28 01:08:09;;;;;;;14.00;3.92;;;;;;;10.58;65.35;101980.22;5011716;28;20026;-90
2022/05/28 01:10:47;;;;;;;12.57;3.78;;;;;;;10.49;65.63;101970.72;5010297;28;20033;-91
2022/05/28 01:13:28;;;;;;;12.00;3.58;;;;;;;10.41;65.86;101986.97;5011596;28;20049;-90
2022/05/28 01:16:01;;;;;;;13.10;3.58;;;;;;;10.36;66.05;101986.22;5012632;28;20053;-89
2022/05/28 01:18:35;;;;;;;13.52;3.65;;;;;;;10.31;66.34;101980.19;5012283;28;20025;-90
2022/05/28 01:21:05;;;;;;;;;;;;;;;10.31;64.78;101984.63;5010269;28;20041;-89
2022/05/28 01:23:53;;;;;;;10.90;3.63;;;;;;;10.17;66.13;101971.75;5010899;28;20004;-90
2022/05/28 01:26:56;;;;;;;12.10;3.85;;;;;;;10.24;66.11;101973.28;5010520;28;20114;-90
2022/05/28 01:29:25;;;;;;;14.10;3.75;;;;;;;10.20;66.96;101980.50;5008658;28;20523;-91
2022/05/28 01:31:52;;;;;;;11.65;3.72;;;;;;;10.23;67.12;101974.19;5010641;28;20056;-89
2022/05/28 01:34:19;;;;;;;14.15;4.13;;;;;;;10.21;67.27;101974.25;5010766;28;20054;-89
2022/05/28 01:36:47;;;;;;;12.95;3.60;;;;;;;10.21;66.95;101968.94;5010140;28;20073;-89
2022/05/28 01:39:13;;;;;;;10.10;3.97;;;;;;;10.21;67.36;101968.06;5002323;28;20022;-88
2022/05/28 01:41:39;;;;;;;13.63;3.90;;;;;;;10.16;67.18;101965.56;4990528;28;20636;-90
2022/05/28 01:44:09;;;;;;;13.75;3.70;;;;;;;10.18;67.38;101957.50;4991118;28;20073;-89
2022/05/28 01:46:36;;;;;;;11.10;3.65;;;;;;;10.19;67.66;101961.91;4990768;28;20027;-90
2022/05/28 01:49:03;;;;;;;11.55;3.95;;;;;;;10.16;67.50;101965.56;5000186;28;20018;-90
2022/05/28 01:51:35;;;;;;;10.90;3.55;;;;;;;10.15;67.30;101970.91;5010553;28;20026;-90
2022/05/28 01:54:13;;;;;;;13.80;4.07;;;;;;;10.10;67.94;101973.72;5010242;28;20510;-89
2022/05/28 01:56:47;;;;;;;10.90;3.78;;;;;;;10.02;68.39;101961.56;5008443;28;20113;-90
2022/05/28 01:59:14;;;;;;;13.50;3.95;;;;;;;10.03;68.59;101974.81;5008957;28;20045;-91
2022/05/28 02:01:40;;;;;;;12.23;3.90;;;;;;;10.02;68.92;101962.44;5009583;28;20100;-89
2022/05/28 02:04:07;;;;;;;8.90;3.33;;;;;;;10.00;69.30;101966.06;5010168;28;20034;-89
2022/05/28 02:06:34;;;;;;;10.43;3.65;;;;;;;9.91;69.69;101954.78;5009974;28;20080;-90
2022/05/28 02:09:02;;;;;;;15.85;3.90;;;;;;;9.92;69.72;101967.16;5008373;28;20033;-91
2022/05/28 02:11:49;;;;;;;14.75;4.50;;;;;;;9.88;69.99;101970.84;5008568;28;20040;-89
2022/05/28 02:14:34;;;;;;;16.45;4.20;;;;;;;9.84;70.07;101969.19;5010213;28;20100;-90
2022/05/28 02:17:11;;;;;;;14.73;4.80;;;;;;;9.77;70.48;101972.06;5009728;28;20022;-90
2022/05/28 02:20:01;;;;;;;12.93;4.35;;;;;;;9.72;69.95;101975.72;5008158;28;20479;-89
2022/05/28 02:22:39;;;;;;;11.48;4.18;;;;;;;9.67;70.82;101975.00;5010212;28;20033;-89
2022/05/28 02:25:17;;;;;;;12.05;4.85;;;;;;;9.60;71.14;101968.13;4991950;28;20030;-90
2022/05/28 02:27:45;;;;;;;14.57;4.35;;;;;;;9.57;71.80;101967.31;4990545;28;20579;-90
2022/05/28 02:30:11;;;;;;;17.70;4.97;;;;;;;9.53;72.21;101974.53;5009167;28;20057;-91
2022/05/28 02:32:36;;;;;;;15.38;4.68;;;;;;;9.50;72.42;101974.63;5009346;28;20037;-89
2022/05/28 02:35:02;;;;;;;12.40;4.57;;;;;;;9.44;72.51;101972.97;5010012;28;20025;-90
2022/05/28 02:37:29;;;;;;;10.55;4.70;;;;;;;9.38;72.88;101962.53;5009542;28;20053;-91
2022/05/28 02:39:54;;;;;;;14.20;4.75;;;;;;;9.37;72.94;101965.25;5009082;28;20041;-92
2022/05/28 02:42:19;;;;;;;16.70;4.78;;;;;;;9.31;73.12;101958.31;5010085;28;20018;-90
2022/05/28 02:44:45;;;;;;;16.05;5.20;;;;;;;9.25;73.51;101947.00;5009238;28;20606;-89
2022/05/28 02:47:11;;;;;;;12.48;4.80;;;;;;;9.25;73.62;101957.63;5008092;28;20040;-89
2022/05/28 02:49:36;;;;;;;13.90;5.07;;;;;;;9.20;73.76;101945.34;5007694;28;20034;-90
2022/05/28 02:52:07;;;;;;;16.00;5.35;;;;;;;9.24;73.92;101948.78;5009478;28;20029;-90
2022/05/28 02:54:33;;;;;;;18.38;5.38;;;;;;;9.18;74.31;101951.59;5008575;28;20103;-89
2022/05/28 02:56:59;;;;;;;15.57;4.60;;;;;;;9.17;74.54;101955.16;5009272;28;20073;-90
2022/05/28 02:59:24;;;;;;;14.65;4.63;;;;;;;9.16;74.58;101945.47;5007316;28;20034;-90
2022/05/28 03:01:50;;;;;;;18.85;5.57;;;;;;;9.08;74.74;101934.19;5008578;28;20167;-90
2022/05/28 03:04:15;;;;;;;13.48;4.88;;;;;;;9.12;74.97;101938.50;5009417;28;20033;-89
2022/05/28 03:06:40;;;;;;;15.15;4.72;;;;;;;9.13;75.55;101940.22;5008760;28;20022;-89
2022/05/28 03:09:07;;;;;;;13.70;4.90;;;;;;;9.11;75.58;101947.34;4994571;28;20022;-89
2022/05/28 03:11:34;;;;;;;15.13;5.40;;;;;;;9.10;75.78;101942.97;4989904;28;20038;-89
2022/05/28 03:13:59;;;;;;;14.13;5.45;;;;;;;9.08;75.74;101942.16;4989794;28;20038;-91
2022/05/28 03:16:25;;;;;;;12.60;5.05;;;;;;;9.10;76.30;101943.81;4990285;28;20041;-88
2022/05/28 03:18:50;;;;;;;12.15;4.72;;;;;;;9.08;76.14;101937.69;5002386;28;20132;-88
2022/05/28 03:21:15;;;;;;;15.00;4.15;;;;;;;9.07;76.27;101935.06;5010154;28;20052;-88
2022/05/28 03:23:40;;;;;;;11.25;4.13;;;;;;;9.08;76.38;101942.16;4991321;28;20139;-90
2022/05/28 03:26:15;;;;;;;15.15;4.75;;;;;;;9.09;76.65;101946.53;4991648;28;20062;-88
2022/05/28 03:28:41;;;;;;;12.15;4.65;;;;;;;9.12;77.24;101941.16;5000316;28;20026;-91
2022/05/28 03:31:06;;;;;;;16.10;4.57;;;;;;;9.07;77.54;101925.34;5008910;28;20084;-89
2022/05/28 03:33:32;;;;;;;13.80;4.72;;;;;;;9.12;77.76;101943.81;5008418;28;20479;-88
2022/05/28 03:35:57;;;;;;;12.13;4.38;;;;;;;9.12;77.76;101941.16;5008523;28;20423;-90
2022/05/28 03:38:22;;;;;;;15.13;4.88;;;;;;;9.12;77.80;101943.81;5006846;28;20056;-90
2022/05/28 03:40:47;;;;;;;13.10;4.40;;;;;;;9.12;77.94;101943.81;5008347;28;20034;-90
2022/05/28 03:43:13;;;;;;;14.05;4.70;;;;;;;9.11;78.20;101942.94;5008866;28;20160;-92
2022/05/28 03:45:38;;;;;;;13.20;4.70;;;;;;;9.12;78.78;101949.13;5007847;28;20479;-88
2022/05/28 03:48:06;;;;;;;13.80;4.85;;;;;;;9.13;78.53;101953.50;5007094;28;20022;-89
2022/05/28 03:50:31;;;;;;;11.95;4.75;;;;;;;9.13;78.98;101956.16;5006972;28;20034;-90
2022/05/28 03:52:56;;;;;;;11.63;3.83;;;;;;;9.11;78.65;101942.03;5007620;28;20030;-90
2022/05/28 03:55:22;;;;;;;13.50;4.32;;;;;;;9.11;78.92;101947.34;5008229;28;20050;-90
2022/05/28 03:57:47;;;;;;;14.40;4.45;;;;;;;9.11;79.34;101950.91;5006606;28;20316;-89
2022/05/28 04:00:14;;;;;;;15.77;4.18;;;;;;;9.13;79.57;101954.38;5008825;28;20480;-89
2022/05/28 04:02:40;;;;;;;9.75;3.72;;;;;;;9.15;79.85;101963.16;5008016;28;20062;-89
2022/05/28 04:05:05;;;;;;;12.57;4.47;;;;;;;9.15;80.11;101957.84;5008328;28;20105;-87
2022/05/28 04:07:30;;;;;;;10.52;4.05;;;;;;;9.13;80.19;101949.06;5006032;28;20041;-90
2022/05/28 04:09:56;;;;;;;11.88;3.70;;;;;;;9.17;80.14;101960.47;5008153;28;20113;-91
2022/05/28 04:12:21;;;;;;;15.85;4.10;;;;;;;9.15;80.67;101952.53;5010981;28;20030;-90
2022/05/28 04:14:48;;;;;;;15.05;3.80;;;;;;;9.16;80.71;101956.97;5011620;28;20440;-89
2022/05/28 04:17:13;;;;;;;13.23;3.90;;;;;;;9.22;80.63;101966.53;5010905;28;20037;-90
2022/05/28 04:19:39;;;;;;;17.13;4.55;;;;;;;9.22;80.59;101962.09;5010213;28;20362;-89
2022/05/28 04:22:04;;;;;;;16.13;4.47;;;;;;;9.21;81.09;101959.47;4995184;28;20039;-89
2022/05/28 04:24:30;;;;;;;10.20;3.80;;;;;;;9.28;80.95;101969.03;4991460;28;20034;-89
2022/05/28 04:26:55;;;;;;;11.40;3.97;;;;;;;9.29;80.84;101965.47;4993456;28;20476;-90
2022/05/28 04:29:20;;;;;;;12.85;4.28;;;;;;;9.32;81.46;101975.13;5011721;28;20041;-92
2022/05/28 04:31:45;;;;;;;14.70;4.05;;;;;;;9.35;81.06;101975.03;5011774;28;20280;-89
2022/05/28 04:34:11;;;;;;;14.10;4.10;;;;;;;9.39;81.05;101980.22;5012100;28;20102;-89
2022/05/28 04:36:36;;;;;;;14.73;4.55;;;;;;;9.42;81.36;101973.97;5011180;28;20079;-90
2022/05/28 04:39:02;;;;;;;10.65;3.70;;;;;;;9.46;81.04;101979.16;5010416;28;20395;-90
2022/05/28 04:41:27;;;;;;;10.55;3.95;;;;;;;9.48;80.38;101977.31;5011912;28;20184;-88
2022/05/28 04:43:53;;;;;;;13.60;3.92;;;;;;;9.50;80.74;101973.75;5013091;28;20480;-90
2022/05/28 04:46:18;;;;;;;11.05;3.58;;;;;;;9.55;81.03;101979.81;5012352;28;20036;-91
2022/05/28 04:48:43;;;;;;;9.45;3.58;;;;;;;9.58;81.05;101974.41;5010194;28;20026;-91
2022/05/28 04:51:09;;;;;;;10.50;4.28;;;;;;;9.66;80.65;101977.72;5011463;28;20160;-90
2022/05/28 04:53:34;;;;;;;11.77;4.20;;;;;;;9.69;80.89;101975.81;5011404;28;20037;-90
2022/05/28 04:55:59;;;;;;;12.68;3.72;;;;;;;9.76;81.12;101981.84;5011387;28;20134;-90
2022/05/28 04:58:27;;;;;;;15.75;4.13;;;;;;;9.70;80.66;101960.75;5009479;28;20460;-90
2022/05/28 05:00:53;;;;;;;13.68;3.65;;;;;;;9.84;80.65;101979.81;5010892;28;20040;-89
2022/05/28 05:03:18;;;;;;;19.58;4.25;;;;;;;9.92;80.90;101992.91;5011324;28;20025;-88
2022/05/28 05:05:44;;;;;;;18.95;4.80;;;;;;;9.98;80.72;101988.25;5010004;28;20041;-90
2022/05/28 05:08:09;;;;;;;15.10;3.90;;;;;;;10.07;80.73;101992.41;5010175;28;20379;-90
2022/05/28 05:10:35;;;;;;;10.25;3.70;;;;;;;10.14;80.02;101991.31;5011148;28;20030;-89
2022/05/28 05:13:00;;;;;;;13.82;3.58;;;;;;;10.17;80.61;101979.72;5010964;28;20038;-91
2022/05/28 05:15:27;;;;;;;13.75;3.25;;;;;;;10.30;79.93;102004.19;5011705;28;20459;-91
2022/05/28 05:17:52;;;;;;;13.88;3.85;;;;;;;10.37;79.91;101995.97;5009584;28;20472;-90
2022/05/28 05:20:17;;;;;;;13.23;3.58;;;;;;;10.44;79.51;101997.50;4997913;28;20026;-90
2022/05/28 05:22:43;;;;;;;13.75;3.45;;;;;;;10.53;79.32;102000.78;4991012;28;20468;-91
2022/05/28 05:25:11;;;;;;;11.15;3.40;;;;;;;10.62;79.37;101995.19;4992097;28;20049;-90
2022/05/28 05:27:36;;;;;;;10.70;3.38;;;;;;;10.71;79.04;101994.88;5002140;28;20025;-90
2022/05/28 05:30:03;;;;;;;10.85;3.30;;;;;;;10.72;78.54;101983.28;5012344;28;20394;-91
2022/05/28 05:32:28;;;;;;;14.05;3.25;;;;;;;10.80;78.24;101988.38;5013166;28;20030;-90
2022/05/28 05:34:54;;;;;;;10.68;4.18;;;;;;;10.90;78.38;102003.09;5011714;28;20041;-90
2022/05/28 05:37:19;;;;;;;9.60;3.92;;;;;;;10.99;77.88;102000.13;5009234;28;20065;-90
2022/05/28 05:39:44;;;;;;;12.82;3.35;;;;;;;11.10;77.95;102005.09;5010025;28;20391;-90
2022/05/28 05:42:10;;;;;;;7.57;2.83;;;;;;;11.17;76.93;102009.31;5010663;28;20092;-89
2022/05/28 05:44:37;;;;;;;10.02;2.63;;;;;;;11.23;75.75;102003.75;5010453;28;20021;-89
2022/05/28 05:47:02;;;;;;;10.35;2.95;;;;;;;11.33;75.94;102002.50;5009098;28;20065;-90
2022/05/28 05:49:27;;;;;;;11.02;2.83;;;;;;;11.46;75.99;102009.13;4992512;28;20486;-89
2022/05/28 05:51:52;;;;;;;12.63;3.13;;;;;;;11.60;74.49;102005.09;5009610;28;20136;-89
2022/05/28 05:54:19;;;;;;;7.68;2.53;;;;;;;11.76;74.45;102005.41;5008995;28;20038;-90
2022/05/28 05:56:45;;;;;;;9.50;2.33;;;;;;;11.88;71.94;102008.53;5008093;28;20125;-91
2022/05/28 05:59:10;;;;;;;10.70;2.70;;;;;;;12.02;72.05;102009.78;5010250;28;20026;-90
2022/05/28 06:01:36;;;;;;;13.43;2.78;;;;;;;12.17;71.17;102001.19;5010009;28;20025;-89
2022/05/28 06:04:01;;;;;;;7.25;2.45;;;;;;;12.31;71.24;102004.19;5009646;28;20036;-91
2022/05/28 06:06:27;;;;;;;10.57;1.88;;;;;;;12.47;68.94;102015.13;5008496;28;20369;-90
2022/05/28 06:08:52;;;;;;;7.47;1.90;;;;;;;12.63;68.56;102013.56;5009590;28;20041;-92
2022/05/28 06:11:17;;;;;;;7.00;1.85;;;;;;;12.74;68.04;102006.91;5010279;28;20144;-89
2022/05/28 06:13:43;;;;;;;7.47;2.13;;;;;;;12.73;67.00;102008.72;5009374;28;20036;-91
2022/05/28 06:16:09;;;;;;;8.35;1.48;;;;;;;12.62;66.65;102026.97;5007719;28;20057;-90
2022/05/28 06:18:34;;;;;;;7.70;1.65;;;;;;;12.53;66.62;102025.53;4998618;28;20034;-89
2022/05/28 06:21:00;;;;;;;7.20;1.58;;;;;;;12.43;66.47;102022.38;4990190;28;20033;-91
2022/05/28 06:23:26;;;;;;;10.18;1.80;;;;;;;12.49;65.94;102029.28;4989061;28;20599;-89
2022/05/28 06:25:51;;;;;;;7.95;1.70;;;;;;;12.63;65.85;102029.59;4990411;28;20085;-91
2022/05/28 06:28:16;;;;;;;7.82;1.60;;;;;;;13.01;65.55;102016.47;4990788;28;20065;-90
2022/05/28 06:30:44;;;;;;;7.47;1.77;;;;;;;13.33;63.66;102024.91;4989302;28;20050;-92
2022/05/28 06:33:10;;;;;;;6.30;1.52;;;;;;;13.41;62.44;102020.97;4989768;28;20038;-91
2022/05/28 06:35:35;;;;;;;5.00;1.50;;;;;;;13.25;62.00;102027.94;4989723;28;20530;-91
2022/05/28 06:38:00;;;;;;;7.60;1.65;;;;;;;12.99;62.67;102017.44;5007361;28;20538;-91
2022/05/28 06:40:27;;;;;;;6.82;1.75;;;;;;;12.95;62.89;102022.91;5009742;28;20030;-90
2022/05/28 06:42:55;;;;;;;5.32;1.73;;;;;;;12.74;62.77;102031.81;5009391;28;20133;-91
2022/05/28 06:45:20;;;;;;;6.20;1.70;;;;;;;12.61;62.51;102028.78;5009918;28;20026;-90
2022/05/28 06:47:46;;;;;;;8.00;1.58;;;;;;;12.55;63.06;102028.19;5007742;28;20380;-90
2022/05/28 06:52:58;;;;;;;7.95;1.77;;;;;;;13.26;60.57;102029.69;5010361;28;20323;-91
2022/05/28 06:55:24;;;;;;;8.25;1.67;;;;;;;13.76;59.73;102023.03;5010317;28;20026;-92
2022/05/28 06:57:50;;;;;;;6.18;2.20;;;;;;;14.04;58.32;102027.97;5006827;28;20160;-92
2022/05/28 07:00:16;;;;;;;5.28;1.80;;;;;;;14.41;57.03;102030.63;5009091;28;20029;-93
2022/05/28 07:02:41;;;;;;;7.18;2.40;;;;;;;14.62;54.64;102035.94;5009042;28;20038;-91
2022/05/28 07:05:07;;;;;;;3.13;1.15;;;;;;;14.80;54.37;102039.53;5008009;28;20091;-91
2022/05/28 07:07:32;;;;;;;4.95;1.55;;;;;;;14.96;53.04;102037.81;5007246;28;20033;-92
2022/05/28 07:09:57;;;;;;;7.80;1.25;;;;;;;14.93;51.88;102038.84;5008998;28;20041;-91
2022/05/28 07:12:22;;;;;;;3.72;1.25;;;;;;;14.99;52.48;102040.34;5009126;28;20419;-91
2022/05/28 07:14:48;;;;;;;8.30;1.35;;;;;;;14.98;50.87;102038.59;5008326;28;20037;-91
2022/05/28 07:17:13;;;;;;;5.82;1.50;;;;;;;14.70;52.02;102048.00;5007074;28;20519;-91
2022/05/28 07:19:38;;;;;;;6.38;1.42;;;;;;;14.50;51.82;102044.56;5008822;28;20029;-90
2022/05/28 07:22:03;;;;;;;6.40;1.55;;;;;;;14.49;52.53;102046.38;5009107;28;20034;-92
2022/05/28 07:24:29;;;;;;;4.78;1.60;;;;;;;14.35;52.14;102046.16;5009723;28;20502;-91
2022/05/28 07:26:54;;;;;;;7.07;1.67;;;;;;;14.17;52.68;102055.88;5006001;28;20040;-91
2022/05/28 07:29:20;;;;;;;5.32;1.70;;;;;;;14.27;53.06;102054.53;5008851;28;20046;-91
2022/05/28 07:31:45;;;;;;;6.47;1.60;;;;;;;14.55;51.14;102047.91;5008902;28;20482;-90
2022/05/28 07:34:11;;;;;;;4.85;1.33;;;;;;;14.53;51.30;102044.41;5009856;28;20273;-89
2022/05/28 07:36:37;;;;;;;5.53;1.45;;;;;;;14.39;52.09;102047.75;5009049;28;20371;-89
2022/05/28 07:39:03;;;;;;;6.43;1.70;;;;;;;14.63;52.01;102049.28;5011002;28;20022;-90
2022/05/28 07:41:29;;;;;;;5.25;1.50;;;;;;;14.48;51.38;102052.66;5010749;28;20026;-90
2022/05/28 07:43:56;;;;;;;3.75;1.35;;;;;;;14.60;51.14;102056.59;5007649;28;20033;-90
2022/05/28 07:46:27;;;;;;;7.50;2.20;;;;;;;14.24;51.85;102052.00;5007225;28;20034;-91
2022/05/28 07:48:54;;;;;;;9.10;2.08;;;;;;;13.93;53.07;102055.25;5008829;28;20025;-90
2022/05/28 07:51:19;;;;;;;6.97;1.88;;;;;;;13.63;53.48;102053.00;5007282;28;20022;-89
2022/05/28 07:53:45;;;;;;;6.53;1.73;;;;;;;13.38;54.29;102042.50;5006604;28;20033;-90
2022/05/28 07:56:11;;;;;;;4.93;1.83;;;;;;;13.32;54.55;102056.13;5006885;28;20026;-91
2022/05/28 07:58:37;;;;;;;6.35;1.77;;;;;;;13.18;55.09;102053.16;5007730;28;20033;-90
2022/05/28 08:01:04;;;;;;;7.88;1.85;;;;;;;13.72;54.90;102046.38;5008482;28;20029;-91
2022/05/28 08:03:29;;;;;;;4.72;1.42;;;;;;;14.11;53.79;102054.38;5008651;28;20026;-89
2022/05/28 08:05:55;;;;;;;8.70;1.60;;;;;;;14.72;51.21;102053.31;5005070;28;20037;-90
2022/05/28 08:08:22;;;;;;;5.18;1.50;;;;;;;14.85;51.29;102054.44;5007165;28;20030;-91
2022/05/28 08:10:48;;;;;;;6.72;1.60;;;;;;;15.88;49.12;102041.09;5007836;28;20030;-92
2022/05/28 08:13:19;;;;;;;4.63;1.42;;;;;;;16.83;45.62;102043.84;5007953;28;20045;-91
2022/05/28 08:15:45;;;;;;;3.55;1.38;;;;;;;16.87;45.80;102043.59;5002429;28;20026;-91
2022/05/28 08:18:12;;;;;;;6.43;1.25;;;;;;;17.05;44.07;102038.06;5008698;28;20018;-90
2022/05/28 08:23:22;;;;;;;;;;;;;;;18.11;44.72;102033.38;5008879;28;20213;-89
2022/05/28 08:25:48;;;;;;;4.50;1.30;;;;;;;19.37;40.20;102034.00;5005967;28;19918;-92
2022/05/28 08:28:15;;;;;;;5.13;1.60;;;;;;;20.32;37.63;102032.66;5008081;28;20265;-90
2022/05/28 08:30:41;;;;;;;5.25;1.50;;;;;;;21.28;36.02;102029.13;5007969;28;20046;-91
2022/05/28 08:33:08;;;;;;;6.10;1.50;;;;;;;21.96;35.27;102032.81;5006784;28;20049;-91
2022/05/28 08:35:34;;;;;;;6.28;1.33;;;;;;;22.55;32.52;102041.53;5006194;28;20021;-93
2022/05/28 08:38:04;;;;;;;4.47;1.27;;;;;;;22.93;31.62;102042.94;5008034;28;20464;-91
2022/05/28 08:40:34;;;;;;;3.35;1.05;;;;;;;23.02;29.99;102036.72;5008239;28;20097;-90
2022/05/28 08:43:00;;;;;;;4.07;1.27;;;;;;;23.69;29.25;102032.78;5007441;28;20028;-90
2022/05/28 08:45:26;;;;;;;5.25;1.25;;;;;;;24.54;28.97;102020.69;5006834;28;20080;-92
2022/05/28 08:47:54;;;;;;;4.75;1.52;;;;;;;24.99;28.21;102029.16;5007611;28;20034;-92
2022/05/28 08:50:20;;;;;;;4.15;1.10;;;;;;;25.12;27.31;102028.88;5008317;28;20079;-92
2022/05/28 08:52:45;;;;;;;3.85;1.17;;;;;;;24.46;28.23;102028.69;5007407;28;20026;-90
2022/05/28 08:55:16;;;;;;;2.87;1.03;;;;;;;23.40;28.85;102029.00;5006267;28;20439;-90
2022/05/28 08:57:53;;;;;;;5.50;1.45;;;;;;;21.73;32.61;102040.91;5010005;28;20276;-92
2022/05/28 09:00:31;;;;;;;6.47;1.70;;;;;;;20.09;34.86;102044.28;5012479;28;20029;-90
2022/05/28 09:03:05;;;;;;;6.22;2.15;;;;;;;18.80;37.67;102053.16;5012091;28;20046;-91
2022/05/28 09:05:38;;;;;;;6.85;2.13;;;;;;;17.97;38.88;102048.66;5009536;28;20534;-91
2022/05/28 09:08:05;;;;;;;5.53;1.50;;;;;;;17.69;39.64;102044.97;5011421;28;20029;-91
2022/05/28 09:10:43;;;;;;;4.88;1.30;;;;;;;17.28;40.51;102042.97;5010895;28;20026;-90
2022/05/28 09:13:20;;;;;;;3.80;1.02;;;;;;;16.88;41.53;102034.56;5008252;28;20030;-89
2022/05/28 09:15:46;;;;;;;4.50;1.27;;;;;;;16.86;42.78;102044.56;4999464;28;20034;-91
2022/05/28 09:18:12;;;;;;;5.78;1.08;;;;;;;18.98;36.81;102034.00;5011091;28;20026;-92
2022/05/28 09:20:40;;;;;;;4.07;1.13;;;;;;;21.44;32.43;102028.81;5010917;28;20018;-91
2022/05/28 09:23:06;;;;;;;5.35;0.90;;;;;;;22.79;29.65;102030.50;5011321;28;20026;-93
2022/05/28 09:25:37;;;;;;;2.92;0.90;;;;;;;23.67;28.01;102023.91;5008725;28;20567;-92
2022/05/28 09:28:06;;;;;;;2.42;0.80;;;;;;;22.89;28.32;102030.56;5011041;28;20111;-90
2022/05/28 09:30:42;;;;;;;5.05;1.13;;;;;;;22.89;29.37;102027.84;5010661;28;20045;-92
2022/05/28 09:33:15;;;;;;;3.35;0.90;;;;;;;22.32;30.41;102032.59;5011248;28;20030;-91
2022/05/28 09:35:46;;;;;;;5.22;1.10;;;;;;;21.31;31.14;102026.16;5009112;28;20026;-93
2022/05/28 09:38:30;;;;;;;4.63;1.20;;;;;;;20.69;32.44;102015.56;5011726;28;20076;-90
2022/05/28 09:41:04;;;;;;;;;;;;;;;22.88;32.60;102032.44;5010801;28;20041;-91
2022/05/28 09:44:03;;;;;;;4.80;1.23;;;;;;;22.67;31.12;102023.38;5012012;28;20011;-92
2022/05/28 09:46:36;;;;;;;3.22;1.20;;;;;;;20.73;32.58;102028.75;5010505;28;20379;-91
2022/05/28 09:49:04;;;;;;;5.20;1.10;;;;;;;19.66;34.38;102025.72;5012494;28;20045;-90
2022/05/28 09:51:32;;;;;;;4.55;1.17;;;;;;;18.60;36.30;102027.50;5012298;28;20034;-91
2022/05/28 09:56:51;;;;;;;4.47;1.20;;;;;;;21.99;31.27;102017.19;5009472;28;20552;-90
2022/05/28 09:59:46;;;;;;;4.38;1.33;;;;;;;23.82;29.66;102013.53;5010572;28;20034;-91
2022/05/28 10:02:40;;;;;;;4.78;1.20;;;;;;;25.52;27.75;101993.25;5010591;28;20029;-91
2022/05/28 10:05:13;;;;;;;5.15;0.90;;;;;;;26.69;25.26;102004.50;5008958;28;20456;-92
2022/05/28 10:07:41;;;;;;;4.40;1.10;;;;;;;25.62;24.46;102003.28;5009179;28;20030;-90
2022/05/28 10:10:26;;;;;;;4.43;0.90;;;;;;;26.33;24.90;102000.81;5009694;28;20468;-92
2022/05/28 10:12:52;;;;;;;4.50;1.02;;;;;;;26.69;23.77;102007.22;4998515;28;20092;-93
2022/05/28 10:15:21;;;;;;;4.40;1.05;;;;;;;25.21;25.22;102002.66;4999165;28;20411;-92
2022/05/28 10:18:00;;;;;;;3.97;1.00;;;;;;;24.86;26.85;101998.63;5009698;28;20108;-91
2022/05/28 10:20:26;;;;;;;6.18;1.38;;;;;;;23.11;26.92;101999.75;5010264;28;20026;-93
2022/05/28 10:22:54;;;;;;;4.70;1.13;;;;;;;22.95;28.14;102000.22;5009055;28;20076;-90
2022/05/28 10:25:37;;;;;;;4.88;1.27;;;;;;;22.53;29.95;102001.94;5008418;28;20057;-91
2022/05/28 10:28:03;;;;;;;4.60;1.10;;;;;;;21.38;31.00;102000.38;5010041;28;20053;-92
2022/05/28 10:30:46;;;;;;;4.70;1.30;;;;;;;20.48;33.44;102001.78;5009718;28;20312;-92
2022/05/28 10:33:16;;;;;;;3.92;1.08;;;;;;;19.62;34.63;102013.41;5009903;28;20050;-92
2022/05/28 10:35:42;;;;;;;2.78;1.00;;;;;;;19.69;35.65;102011.13;5007355;28;20430;-90
2022/05/28 10:38:08;;;;;;;5.35;1.60;;;;;;;22.65;32.41;102006.34;5009657;28;20029;-92
2022/05/28 10:40:45;;;;;;;5.45;1.40;;;;;;;26.08;27.95;101995.09;5009556;28;20029;-92
2022/05/28 10:43:22;;;;;;;4.95;1.55;;;;;;;27.74;25.00;101986.41;5009760;28;20112;-93
2022/05/28 10:45:58;;;;;;;7.18;1.48;;;;;;;27.74;23.93;101998.19;5008693;28;20334;-94
2022/05/28 10:48:59;;;;;;;3.75;0.90;;;;;;;26.42;23.39;101994.47;5009478;28;20030;-94
2022/05/28 10:51:30;;;;;;;5.53;1.38;;;;;;;26.26;23.43;102000.59;5007004;28;20073;-94
2022/05/28 10:54:12;;;;;;;5.72;0.90;;;;;;;27.87;22.50;101983.22;5008059;28;20068;-92
2022/05/28 10:57:01;;;;;;;6.32;1.20;;;;;;;28.49;21.59;101984.66;4989796;28;20170;-94
2022/05/28 10:59:57;;;;;;;4.63;1.10;;;;;;;26.08;23.84;101996.94;4990411;28;20026;-94
2022/05/28 11:02:45;;;;;;;6.18;1.02;;;;;;;23.04;24.85;102001.31;4990104;28;20320;-94
2022/05/28 11:05:25;;;;;;;5.53;1.48;;;;;;;21.16;28.10;101998.44;4989841;28;20384;-93
2022/05/28 11:07:54;;;;;;;4.20;1.20;;;;;;;23.36;26.63;101990.34;5008922;28;20545;-91
2022/05/28 11:10:34;;;;;;;4.57;1.02;;;;;;;26.60;22.86;101988.19;5008824;28;20034;-93
2022/05/28 11:13:32;;;;;;;4.93;0.98;;;;;;;28.55;21.40;101985.84;4990336;28;20042;-94
2022/05/28 11:16:46;;;;;;;4.32;0.93;;;;;;;27.84;22.80;101975.31;5008298;28;20065;-94
2022/05/28 11:19:56;;;;;;;3.58;0.90;;;;;;;27.31;22.64;101986.28;5009054;28;20112;-92
2022/05/28 11:22:30;;;;;;;5.43;1.05;;;;;;;28.15;19.55;101978.38;4998915;28;20053;-90
2022/05/28 11:25:04;;;;;;;3.97;1.10;;;;;;;29.13;17.86;101978.56;5000527;28;20035;-95
2022/05/28 11:27:45;;;;;;;3.40;0.88;;;;;;;28.97;17.80;101980.28;4990652;28;20052;-92
2022/05/28 11:30:17;;;;;;;3.30;0.82;;;;;;;29.60;17.88;101962.22;4990519;28;20086;-94
2022/05/28 11:33:06;;;;;;;3.15;1.10;;;;;;;31.43;17.11;101964.28;4989054;28;20033;-93
2022/05/28 11:35:35;;;;;;;2.53;0.80;;;;;;;31.54;16.26;101973.16;5003502;28;20049;-92
2022/05/28 11:38:30;;;;;;;4.15;1.27;;;;;;;28.67;19.79;101972.69;5009036;28;20084;-94
2022/05/28 11:41:03;;;;;;;5.47;1.30;;;;;;;25.90;22.65;101983.25;4990629;28;20099;-94
2022/05/28 11:43:32;;;;;;;3.03;0.93;;;;;;;24.72;22.98;101978.13;5009047;28;20053;-91